createdAt,value
2018-04-17T00:00:16.314Z,38.6
2018-04-17T00:01:06.118Z,38.6
2018-04-17T00:01:56.450Z,38.6
2018-04-17T00:02:46.245Z,38.6
2018-04-17T00:03:36.036Z,38.6
2018-04-17T00:04:26.356Z,38.6
2018-04-17T00:05:16.710Z,38.6
2018-04-17T00:06:06.472Z,38.6
2018-04-17T00:06:56.272Z,38.6
2018-04-17T00:07:46.040Z,38.6
2018-04-17T00:08:36.106Z,38.6
2018-04-17T00:09:27.043Z,38.6
2018-04-17T00:10:17.062Z,38.6
2018-04-17T00:11:06.696Z,38.6
2018-04-17T00:11:57.194Z,38.6
2018-04-17T00:12:47.256Z,38.6
2018-04-17T00:13:37.334Z,38.6
2018-04-17T00:14:27.397Z,38.6
2018-04-17T00:15:16.918Z,38.6
2018-04-17T00:16:07.501Z,38.6
2018-04-17T00:16:57.615Z,38.6
2018-04-17T00:17:47.635Z,38.6
2018-04-17T00:18:37.706Z,38.6
2018-04-17T00:19:27.256Z,38.6
2018-04-17T00:20:17.860Z,38.5
2018-04-17T00:21:07.940Z,38.5
2018-04-17T00:21:57.723Z,38.5
2018-04-17T00:22:47.773Z,38.5
2018-04-17T00:23:37.810Z,38.5
2018-04-17T00:24:27.878Z,38.5
2018-04-17T00:25:17.643Z,38.5
2018-04-17T00:26:08.288Z,38.5
2018-04-17T00:26:58.105Z,38.5
2018-04-17T00:27:48.120Z,38.5
2018-04-17T00:28:37.900Z,38.5
2018-04-17T00:29:28.290Z,38.5
2018-04-17T00:30:18.075Z,38.4
2018-04-17T00:31:07.792Z,38.4
2018-04-17T00:31:58.204Z,38.4
2018-04-17T00:32:48.494Z,38.4
2018-04-17T00:33:38.671Z,38.4
2018-04-17T00:34:28.645Z,38.4
2018-04-17T00:35:18.988Z,38.4
2018-04-17T00:36:08.794Z,38.4
2018-04-17T00:36:58.809Z,38.4
2018-04-17T00:37:48.921Z,38.4
2018-04-17T00:38:38.960Z,38.4
2018-04-17T00:39:28.734Z,38.4
2018-04-17T00:40:19.084Z,38.4
2018-04-17T00:41:09.151Z,38.4
2018-04-17T00:41:59.504Z,38.4
2018-04-17T00:42:49.247Z,38.4
2018-04-17T00:43:39.598Z,38.4
2018-04-17T00:44:29.668Z,38.4
2018-04-17T00:45:19.450Z,38.4
2018-04-17T00:46:09.819Z,38.4
2018-04-17T00:46:59.846Z,38.4
2018-04-17T00:47:49.626Z,38.4
2018-04-17T00:48:39.404Z,38.4
2018-04-17T00:49:30.057Z,38.4
2018-04-17T00:50:19.519Z,38.4
2018-04-17T00:51:09.873Z,38.4
2018-04-17T00:51:59.956Z,38.4
2018-04-17T00:52:49.774Z,38.3
2018-04-17T00:53:40.376Z,38.3
2018-04-17T00:54:29.849Z,38.3
2018-04-17T00:55:20.219Z,38.3
2018-04-17T00:56:10.558Z,38.3
2018-04-17T00:57:00.065Z,38.3
2018-04-17T00:57:50.098Z,38.3
2018-04-17T00:58:40.186Z,38.3
2018-04-17T00:59:30.792Z,38.3
2018-04-17T01:00:20.877Z,38.3
2018-04-17T01:01:10.915Z,38.3
2018-04-17T01:02:00.137Z,38.3
2018-04-17T01:02:51.045Z,38.3
2018-04-17T01:03:40.830Z,38.3
2018-04-17T01:04:30.326Z,38.3
2018-04-17T01:05:21.245Z,38.3
2018-04-17T01:06:11.301Z,38.3
2018-04-17T01:07:01.345Z,38.3
2018-04-17T01:07:50.845Z,38.3
2018-04-17T01:08:40.954Z,38.3
2018-04-17T01:09:31.276Z,38.3
2018-04-17T01:10:20.772Z,38.3
2018-04-17T01:11:11.692Z,38.3
2018-04-17T01:12:01.751Z,38.3
2018-04-17T01:12:51.781Z,38.3
2018-04-17T01:13:41.585Z,38.2
2018-04-17T01:14:31.997Z,38.3
2018-04-17T01:15:21.714Z,38.2
2018-04-17T01:16:11.480Z,38.2
2018-04-17T01:17:02.146Z,38.2
2018-04-17T01:17:51.342Z,38.2
2018-04-17T01:18:42.221Z,38.2
2018-04-17T01:19:32.031Z,38.2
2018-04-17T01:20:21.819Z,38.2
2018-04-17T01:21:12.164Z,38.2
2018-04-17T01:22:01.919Z,38.2
2018-04-17T01:22:52.551Z,38.1
2018-04-17T01:23:42.354Z,38.1
2018-04-17T01:24:32.689Z,38.2
2018-04-17T01:25:22.743Z,38.1
2018-04-17T01:26:12.540Z,38.1
2018-04-17T01:27:02.858Z,38.1
2018-04-17T01:27:52.923Z,38.1
2018-04-17T01:28:42.733Z,38.1
2018-04-17T01:29:33.054Z,38.1
2018-04-17T01:30:22.852Z,38
2018-04-17T01:31:12.342Z,37.9
2018-04-17T01:32:03.253Z,37.9
2018-04-17T01:32:53.025Z,37.9
2018-04-17T01:33:43.372Z,38.1
2018-04-17T01:34:33.407Z,38.2
2018-04-17T01:35:23.515Z,38.4
2018-04-17T01:36:13.544Z,38.6
2018-04-17T01:37:03.319Z,38.8
2018-04-17T01:37:52.862Z,39.1
2018-04-17T01:38:43.481Z,39.3
2018-04-17T01:39:33.842Z,39.6
2018-04-17T01:40:23.600Z,39.8
2018-04-17T01:41:13.647Z,40.1
2018-04-17T01:42:03.434Z,40.3
2018-04-17T01:42:54.073Z,40.6
2018-04-17T01:43:43.949Z,40.8
2018-04-17T01:44:34.163Z,41
2018-04-17T01:45:23.971Z,41.3
2018-04-17T01:46:14.028Z,41.5
2018-04-17T01:47:03.809Z,41.8
2018-04-17T01:47:54.174Z,42
2018-04-17T01:48:44.241Z,42.3
2018-04-17T01:49:34.014Z,42.5
2018-04-17T01:50:24.067Z,42.8
2018-04-17T01:51:14.114Z,43
2018-04-17T01:52:04.736Z,43.3
2018-04-17T01:52:54.544Z,43.5
2018-04-17T01:53:44.629Z,43.8
2018-04-17T01:54:34.945Z,44
2018-04-17T01:55:24.982Z,44.3
2018-04-17T01:56:15.406Z,44.5
2018-04-17T01:57:04.833Z,44.8
2018-04-17T01:57:54.938Z,45
2018-04-17T01:58:44.409Z,45.3
2018-04-17T01:59:34.193Z,45.5
2018-04-17T02:00:25.121Z,45.8
2018-04-17T02:01:15.158Z,46
2018-04-17T02:02:05.221Z,46.3
2018-04-17T02:02:55.570Z,46.6
2018-04-17T02:03:45.671Z,46.8
2018-04-17T02:04:35.441Z,47.1
2018-04-17T02:05:25.771Z,47.3
2018-04-17T02:06:15.261Z,47.6
2018-04-17T02:07:05.054Z,47.8
2018-04-17T02:07:55.391Z,48.1
2018-04-17T02:08:44.858Z,48.3
2018-04-17T02:09:35.798Z,48.6
2018-04-17T02:10:25.586Z,48.8
2018-04-17T02:11:16.175Z,49.1
2018-04-17T02:12:06.275Z,49.3
2018-04-17T02:12:56.360Z,49.6
2018-04-17T02:13:46.371Z,49.8
2018-04-17T02:14:36.181Z,50.1
2018-04-17T02:15:26.503Z,50.3
2018-04-17T02:16:16.278Z,50.6
2018-04-17T02:17:06.378Z,50.9
2018-04-17T02:17:56.715Z,51.1
2018-04-17T02:18:46.803Z,51.4
2018-04-17T02:19:36.831Z,51.6
2018-04-17T02:20:26.610Z,51.9
2018-04-17T02:21:16.687Z,52.1
2018-04-17T02:22:56.790Z,52.6
2018-04-17T02:23:46.586Z,52.9
2018-04-17T02:24:37.189Z,53.1
2018-04-17T02:25:26.981Z,53.4
2018-04-17T02:26:17.312Z,53.6
2018-04-17T02:27:06.545Z,53.9
2018-04-17T02:27:57.461Z,54.1
2018-04-17T02:28:47.527Z,54.4
2018-04-17T02:29:37.289Z,54.6
2018-04-17T02:30:27.374Z,54.9
2018-04-17T02:31:17.153Z,55.1
2018-04-17T02:32:07.506Z,55.3
2018-04-17T02:32:57.283Z,55.4
2018-04-17T02:33:47.922Z,55.4
2018-04-17T02:34:37.675Z,55.4
2018-04-17T02:35:28.025Z,55.6
2018-04-17T02:36:18.105Z,55.6
2018-04-17T02:37:07.890Z,55.6
2018-04-17T02:37:57.933Z,55.6
2018-04-17T02:38:48.267Z,55.7
2018-04-17T02:39:38.092Z,55.7
2018-04-17T02:40:28.132Z,55.7
2018-04-17T02:41:18.189Z,55.7
2018-04-17T02:42:07.976Z,55.7
2018-04-17T02:42:58.618Z,55.7
2018-04-17T02:43:48.657Z,55.7
2018-04-17T02:44:38.467Z,55.7
2018-04-17T02:45:28.518Z,55.7
2018-04-17T02:46:18.872Z,55.7
2018-04-17T02:47:08.607Z,55.7
2018-04-17T02:47:57.919Z,55.7
2018-04-17T02:48:48.463Z,55.7
2018-04-17T02:49:38.803Z,55.7
2018-04-17T02:50:28.878Z,55.7
2018-04-17T02:51:19.230Z,55.7
2018-04-17T02:52:09.273Z,55.7
2018-04-17T02:52:59.321Z,55.6
2018-04-17T02:53:49.123Z,55.6
2018-04-17T02:54:39.483Z,55.6
2018-04-17T02:55:29.528Z,55.6
2018-04-17T02:56:18.741Z,55.6
2018-04-17T02:57:09.647Z,55.6
2018-04-17T02:57:59.468Z,55.6
2018-04-17T02:58:49.219Z,55.6
2018-04-17T02:59:39.249Z,55.6
2018-04-17T03:00:29.886Z,55.6
2018-04-17T03:01:19.966Z,55.6
2018-04-17T03:02:09.458Z,55.6
2018-04-17T03:02:59.831Z,55.6
2018-04-17T03:03:49.313Z,55.6
2018-04-17T03:04:40.009Z,55.6
2018-04-17T03:05:30.009Z,55.6
2018-04-17T03:06:20.061Z,55.6
2018-04-17T03:07:10.416Z,55.6
2018-04-17T03:07:59.918Z,55.5
2018-04-17T03:08:49.956Z,55.5
2018-04-17T03:09:40.320Z,55.5
2018-04-17T03:10:30.656Z,55.5
2018-04-17T03:11:20.431Z,55.5
2018-04-17T03:12:09.944Z,55.5
2018-04-17T03:13:00.543Z,55.5
2018-04-17T03:13:50.897Z,55.5
2018-04-17T03:14:41.022Z,55.4
2018-04-17T03:15:30.752Z,55.4
2018-04-17T03:16:21.085Z,55.4
2018-04-17T03:17:11.160Z,55.4
2018-04-17T03:18:01.208Z,55.4
2018-04-17T03:18:50.984Z,55.4
2018-04-17T03:19:41.337Z,55.4
2018-04-17T03:20:31.122Z,55.4
2018-04-17T03:21:21.470Z,55.4
2018-04-17T03:22:11.240Z,55.4
2018-04-17T03:23:01.580Z,55.4
2018-04-17T03:23:51.473Z,55.4
2018-04-17T03:24:41.762Z,55.4
2018-04-17T03:25:31.652Z,55.3
2018-04-17T03:26:21.552Z,55.4
2018-04-17T03:27:11.688Z,55.3
2018-04-17T03:28:01.705Z,55.3
2018-04-17T03:28:51.754Z,55.3
2018-04-17T03:29:41.552Z,55.3
2018-04-17T03:30:31.592Z,55.3
2018-04-17T03:31:22.228Z,55.3
2018-04-17T03:32:11.532Z,55.3
2018-04-17T03:33:01.849Z,55.3
2018-04-17T03:33:51.362Z,55.3
2018-04-17T03:34:42.203Z,55.3
2018-04-17T03:35:32.539Z,55.3
2018-04-17T03:36:22.589Z,55.3
2018-04-17T03:37:12.389Z,55.3
2018-04-17T03:38:02.711Z,55.3
2018-04-17T03:38:52.520Z,55.2
2018-04-17T03:39:42.855Z,55.2
2018-04-17T03:40:32.646Z,55.2
2018-04-17T03:41:31.418Z,55.2
2018-04-17T03:42:20.980Z,55.2
2018-04-17T03:43:10.733Z,55.2
2018-04-17T03:44:01.082Z,55.2
2018-04-17T03:44:51.480Z,55.2
2018-04-17T03:45:56.143Z,55.2
2018-04-17T03:46:31.561Z,55.1
2018-04-17T03:47:21.346Z,55.1
2018-04-17T03:48:11.592Z,55.1
2018-04-17T03:49:01.106Z,55.1
2018-04-17T03:49:51.837Z,55.1
2018-04-17T03:50:41.329Z,55.1
2018-04-17T03:51:31.361Z,55.1
2018-04-17T03:52:21.726Z,55.1
2018-04-17T03:53:11.797Z,55.1
2018-04-17T03:54:01.359Z,55.1
2018-04-17T03:54:51.399Z,55.1
2018-04-17T03:55:41.376Z,55.1
2018-04-17T03:56:32.281Z,55.1
2018-04-17T03:57:22.356Z,55.1
2018-04-17T03:58:11.978Z,55.1
2018-04-17T03:59:16.367Z,55
2018-04-17T03:59:52.092Z,55
2018-04-17T04:00:42.118Z,55
2018-04-17T04:01:32.223Z,55
2018-04-17T04:02:21.973Z,55
2018-04-17T04:03:12.308Z,55
2018-04-17T04:04:01.838Z,55
2018-04-17T04:04:52.697Z,55
2018-04-17T04:05:42.520Z,55
2018-04-17T04:06:32.855Z,55
2018-04-17T04:07:22.353Z,55
2018-04-17T04:08:13.203Z,54.9
2018-04-17T04:09:02.460Z,54.9
2018-04-17T04:09:52.547Z,54.9
2018-04-17T04:10:42.863Z,54.9
2018-04-17T04:11:32.948Z,54.9
2018-04-17T04:12:23.470Z,54.9
2018-04-17T04:13:13.273Z,54.9
2018-04-17T04:14:18.282Z,54.9
2018-04-17T04:14:53.194Z,54.9
2018-04-17T04:15:43.500Z,54.9
2018-04-17T04:16:48.164Z,54.9
2018-04-17T04:17:23.015Z,54.9
2018-04-17T04:18:14.078Z,54.9
2018-04-17T04:19:03.696Z,54.9
2018-04-17T04:19:54.062Z,54.9
2018-04-17T04:20:43.563Z,54.9
2018-04-17T04:21:33.942Z,54.9
2018-04-17T04:22:24.238Z,54.8
2018-04-17T04:23:13.451Z,54.8
2018-04-17T04:24:04.791Z,54.8
2018-04-17T04:24:54.176Z,54.8
2018-04-17T04:25:44.894Z,54.8
2018-04-17T04:26:34.551Z,54.8
2018-04-17T04:27:24.429Z,54.8
2018-04-17T04:28:14.589Z,54.8
2018-04-17T04:29:04.374Z,54.8
2018-04-17T04:29:54.579Z,54.8
2018-04-17T04:30:44.308Z,54.8
2018-04-17T04:31:34.700Z,54.8
2018-04-17T04:32:24.481Z,54.8
2018-04-17T04:33:14.825Z,54.8
2018-04-17T04:34:04.550Z,54.8
2018-04-17T04:34:54.529Z,54.7
2018-04-17T04:35:45.237Z,54.7
2018-04-17T04:36:49.680Z,54.7
2018-04-17T04:37:25.075Z,54.7
2018-04-17T04:38:15.397Z,54.7
2018-04-17T04:39:05.534Z,54.7
2018-04-17T04:39:54.988Z,54.7
2018-04-17T04:40:46.020Z,54.7
2018-04-17T04:41:35.461Z,54.7
2018-04-17T04:42:25.195Z,54.6
2018-04-17T04:43:15.683Z,54.7
2018-04-17T04:44:20.536Z,54.6
2018-04-17T04:44:55.953Z,54.6
2018-04-17T04:45:46.048Z,54.6
2018-04-17T04:46:35.765Z,54.6
2018-04-17T04:47:26.063Z,54.6
2018-04-17T04:48:16.201Z,54.6
2018-04-17T04:49:05.697Z,54.6
2018-04-17T04:49:56.332Z,54.6
2018-04-17T04:50:46.383Z,54.6
2018-04-17T04:51:35.902Z,54.6
2018-04-17T04:52:26.477Z,54.6
2018-04-17T04:53:16.778Z,54.6
2018-04-17T04:54:06.627Z,54.6
2018-04-17T04:54:56.705Z,54.6
2018-04-17T04:55:46.650Z,54.6
2018-04-17T04:56:36.833Z,54.5
2018-04-17T04:57:26.597Z,54.5
2018-04-17T04:58:16.659Z,54.5
2018-04-17T04:59:06.454Z,54.5
2018-04-17T04:59:56.510Z,54.5
2018-04-17T05:00:46.769Z,54.5
2018-04-17T05:01:37.211Z,54.5
2018-04-17T05:02:27.237Z,54.5
2018-04-17T05:03:16.781Z,54.5
2018-04-17T05:04:07.108Z,54.5
2018-04-17T05:05:47.249Z,54.4
2018-04-17T05:06:37.566Z,54.4
2018-04-17T05:07:27.609Z,54.4
2018-04-17T05:08:17.678Z,54.4
2018-04-17T05:09:08.139Z,54.4
2018-04-17T05:09:57.796Z,54.4
2018-04-17T05:10:47.615Z,54.4
2018-04-17T05:11:37.646Z,54.4
2018-04-17T05:12:27.947Z,54.4
2018-04-17T05:13:17.796Z,54.4
2018-04-17T05:14:07.833Z,54.4
2018-04-17T05:14:58.372Z,54.4
2018-04-17T05:15:47.988Z,54.4
2018-04-17T05:16:38.341Z,54.4
2018-04-17T05:17:43.092Z,54.4
2018-04-17T05:18:18.082Z,54.4
2018-04-17T05:19:08.717Z,54.4
2018-04-17T05:19:57.746Z,54.3
2018-04-17T05:20:48.628Z,54.3
2018-04-17T05:21:38.401Z,54.3
2018-04-17T05:22:28.730Z,54.3
2018-04-17T05:23:19.205Z,54.3
2018-04-17T05:24:08.869Z,54.3
2018-04-17T05:24:58.955Z,54.3
2018-04-17T05:25:48.729Z,54.3
2018-04-17T05:26:39.048Z,54.3
2018-04-17T05:27:28.554Z,54.3
2018-04-17T05:28:18.938Z,54.3
2018-04-17T05:29:09.215Z,54.3
2018-04-17T05:29:59.596Z,54.3
2018-04-17T05:30:49.378Z,54.3
2018-04-17T05:31:39.872Z,54.2
2018-04-17T05:32:29.210Z,54.2
2018-04-17T05:34:09.658Z,54.2
2018-04-17T05:34:59.116Z,54.2
2018-04-17T05:35:49.482Z,54.2
2018-04-17T05:36:39.857Z,54.2
2018-04-17T05:37:29.336Z,54.2
2018-04-17T05:38:19.669Z,54.2
2018-04-17T05:39:09.743Z,54.2
2018-04-17T05:40:00.103Z,54.1
2018-04-17T05:40:50.136Z,54.1
2018-04-17T05:41:39.473Z,54.1
2018-04-17T05:42:30.007Z,54.1
2018-04-17T05:43:20.539Z,54.1
2018-04-17T05:44:10.123Z,54.1
2018-04-17T05:45:00.450Z,54.1
2018-04-17T05:45:50.226Z,54.1
2018-04-17T05:46:40.547Z,54.1
2018-04-17T05:47:30.630Z,54.1
2018-04-17T05:48:20.730Z,54.1
2018-04-17T05:49:25.136Z,54.1
2018-04-17T05:50:00.820Z,54.1
2018-04-17T05:50:50.605Z,54.1
2018-04-17T05:51:41.192Z,54
2018-04-17T05:52:30.722Z,54
2018-04-17T05:53:21.043Z,54.1
2018-04-17T05:54:11.167Z,54
2018-04-17T05:55:01.471Z,54
2018-04-17T05:56:41.312Z,54
2018-04-17T05:57:31.122Z,54
2018-04-17T05:58:21.465Z,54
2018-04-17T05:59:25.881Z,54
2018-04-17T06:00:16.252Z,54
2018-04-17T06:00:51.662Z,54
2018-04-17T06:01:41.407Z,53.9
2018-04-17T06:02:31.752Z,53.9
2018-04-17T06:03:21.845Z,53.9
2018-04-17T06:04:11.632Z,53.9
2018-04-17T06:05:01.708Z,53.9
2018-04-17T06:05:52.082Z,53.9
2018-04-17T06:06:41.808Z,53.9
2018-04-17T06:07:32.142Z,53.9
2018-04-17T06:08:21.664Z,53.9
2018-04-17T06:09:12.006Z,53.9
2018-04-17T06:10:02.306Z,53.9
2018-04-17T06:10:52.421Z,53.9
2018-04-17T06:11:42.464Z,53.9
2018-04-17T06:12:32.304Z,53.9
2018-04-17T06:13:22.306Z,53.9
2018-04-17T06:14:12.633Z,53.9
2018-04-17T06:15:02.193Z,53.8
2018-04-17T06:15:52.806Z,53.8
2018-04-17T06:16:42.349Z,53.8
2018-04-17T06:17:32.036Z,53.8
2018-04-17T06:18:22.116Z,53.8
2018-04-17T06:19:12.749Z,53.8
2018-04-17T06:20:02.559Z,53.8
2018-04-17T06:20:52.865Z,53.8
2018-04-17T06:21:42.675Z,53.8
2018-04-17T06:22:33.030Z,53.8
2018-04-17T06:23:23.773Z,53.8
2018-04-17T06:24:13.408Z,53.8
2018-04-17T06:25:03.590Z,53.8
2018-04-17T06:25:52.946Z,53.8
2018-04-17T06:26:43.806Z,53.8
2018-04-17T06:27:33.645Z,53.8
2018-04-17T06:28:23.405Z,53.8
2018-04-17T06:29:13.604Z,53.8
2018-04-17T06:30:03.375Z,53.7
2018-04-17T06:30:53.640Z,53.7
2018-04-17T06:31:43.408Z,53.7
2018-04-17T06:32:33.437Z,53.7
2018-04-17T06:33:23.777Z,53.7
2018-04-17T06:34:13.310Z,53.7
2018-04-17T06:35:03.886Z,53.7
2018-04-17T06:35:53.995Z,53.6
2018-04-17T06:36:43.774Z,53.6
2018-04-17T06:37:34.165Z,53.6
2018-04-17T06:38:24.187Z,53.6
2018-04-17T06:39:14.159Z,53.6
2018-04-17T06:40:04.070Z,53.6
2018-04-17T06:40:54.371Z,53.6
2018-04-17T06:41:44.085Z,53.6
2018-04-17T06:42:34.507Z,53.6
2018-04-17T06:43:24.550Z,53.6
2018-04-17T06:44:14.637Z,53.6
2018-04-17T06:45:04.439Z,53.6
2018-04-17T06:45:54.764Z,53.6
2018-04-17T06:46:44.834Z,53.6
2018-04-17T06:47:35.833Z,53.6
2018-04-17T06:48:39.561Z,53.6
2018-04-17T06:49:15.734Z,53.6
2018-04-17T06:50:05.096Z,53.5
2018-04-17T06:50:55.148Z,53.5
2018-04-17T06:51:45.501Z,53.5
2018-04-17T06:52:35.461Z,53.5
2018-04-17T06:53:25.350Z,53.5
2018-04-17T06:54:15.123Z,53.5
2018-04-17T06:55:05.476Z,53.5
2018-04-17T06:55:55.231Z,53.4
2018-04-17T06:56:45.637Z,53.4
2018-04-17T06:57:35.653Z,53.4
2018-04-17T06:58:24.653Z,53.4
2018-04-17T06:59:15.940Z,53.4
2018-04-17T07:00:06.123Z,53.4
2018-04-17T07:00:56.166Z,53.4
2018-04-17T07:01:46.261Z,53.4
2018-04-17T07:02:35.720Z,53.4
2018-04-17T07:03:26.188Z,53.4
2018-04-17T07:04:16.400Z,53.4
2018-04-17T07:05:06.240Z,53.4
2018-04-17T07:05:56.961Z,53.4
2018-04-17T07:06:46.332Z,53.4
2018-04-17T07:07:37.129Z,53.4
2018-04-17T07:08:26.080Z,53.3
2018-04-17T07:09:16.803Z,53.4
2018-04-17T07:10:06.859Z,53.3
2018-04-17T07:10:56.641Z,53.3
2018-04-17T07:11:46.304Z,53.3
2018-04-17T07:12:37.262Z,53.3
2018-04-17T07:13:26.251Z,53.3
2018-04-17T07:14:16.631Z,53.3
2018-04-17T07:15:07.190Z,53.3
2018-04-17T07:15:57.437Z,53.3
2018-04-17T07:16:47.348Z,53.3
2018-04-17T07:17:36.887Z,53.3
2018-04-17T07:18:27.224Z,53.3
2018-04-17T07:19:17.595Z,53.3
2018-04-17T07:20:07.355Z,53.3
2018-04-17T07:20:57.841Z,53.3
2018-04-17T07:22:01.834Z,53.3
2018-04-17T07:22:37.357Z,53.2
2018-04-17T07:23:27.108Z,53.2
2018-04-17T07:24:17.383Z,53.2
2018-04-17T07:25:07.823Z,53.2
2018-04-17T07:25:58.056Z,53.2
2018-04-17T07:26:47.581Z,53.2
2018-04-17T07:27:38.089Z,53.2
2018-04-17T07:28:28.243Z,53.2
2018-04-17T07:29:32.986Z,53.1
2018-04-17T07:30:08.336Z,53.1
2018-04-17T07:30:58.441Z,53.1
2018-04-17T07:31:48.223Z,53.1
2018-04-17T07:32:38.273Z,53.1
2018-04-17T07:33:28.432Z,53.1
2018-04-17T07:34:18.224Z,53.1
2018-04-17T07:35:08.772Z,53.1
2018-04-17T07:35:58.020Z,53.1
2018-04-17T07:36:48.627Z,53.1
2018-04-17T07:37:38.698Z,53.1
2018-04-17T07:38:29.117Z,53.1
2018-04-17T07:39:19.030Z,53.1
2018-04-17T07:40:09.140Z,53.1
2018-04-17T07:40:58.730Z,53.1
2018-04-17T07:41:49.277Z,53.1
2018-04-17T07:42:38.802Z,53.1
2018-04-17T07:43:44.307Z,53.1
2018-04-17T07:44:19.484Z,53
2018-04-17T07:45:23.367Z,53
2018-04-17T07:45:59.612Z,53
2018-04-17T07:46:49.879Z,53
2018-04-17T07:47:39.492Z,53
2018-04-17T07:48:29.797Z,53
2018-04-17T07:49:34.521Z,53
2018-04-17T07:50:09.649Z,52.9
2018-04-17T07:50:59.994Z,53
2018-04-17T07:51:49.242Z,52.9
2018-04-17T07:52:40.690Z,52.9
2018-04-17T07:53:30.172Z,52.9
2018-04-17T07:54:20.244Z,52.9
2018-04-17T07:55:10.320Z,52.9
2018-04-17T07:56:00.417Z,52.9
2018-04-17T07:56:49.874Z,52.9
2018-04-17T07:57:40.238Z,52.9
2018-04-17T07:58:30.602Z,52.9
2018-04-17T07:59:20.528Z,52.9
2018-04-17T08:00:10.400Z,52.9
2018-04-17T08:01:00.481Z,52.9
2018-04-17T08:01:50.516Z,52.9
2018-04-17T08:02:41.116Z,52.9
2018-04-17T08:03:30.651Z,52.9
2018-04-17T08:04:21.239Z,52.8
2018-04-17T08:05:10.801Z,52.9
2018-04-17T08:06:01.141Z,52.8
2018-04-17T08:07:05.580Z,52.8
2018-04-17T08:07:41.285Z,52.8
2018-04-17T08:08:31.071Z,52.8
2018-04-17T08:09:21.126Z,52.8
2018-04-17T08:10:10.966Z,52.8
2018-04-17T08:11:01.528Z,52.8
2018-04-17T08:11:51.691Z,52.8
2018-04-17T08:12:41.036Z,52.8
2018-04-17T08:13:30.938Z,52.8
2018-04-17T08:14:21.012Z,52.8
2018-04-17T08:15:10.731Z,52.8
2018-04-17T08:16:01.911Z,52.8
2018-04-17T08:16:51.708Z,52.8
2018-04-17T08:17:42.273Z,52.7
2018-04-17T08:18:31.575Z,52.7
2018-04-17T08:19:21.797Z,52.7
2018-04-17T08:20:11.392Z,52.7
2018-04-17T08:21:01.958Z,52.7
2018-04-17T08:21:51.385Z,52.7
2018-04-17T08:22:42.158Z,52.7
2018-04-17T08:23:31.472Z,52.7
2018-04-17T08:24:22.292Z,52.7
2018-04-17T08:25:12.617Z,52.7
2018-04-17T08:26:02.657Z,52.6
2018-04-17T08:27:07.118Z,52.6
2018-04-17T08:27:42.796Z,52.6
2018-04-17T08:28:32.412Z,52.6
2018-04-17T08:29:22.670Z,52.6
2018-04-17T08:30:27.376Z,52.6
2018-04-17T08:31:02.517Z,52.6
2018-04-17T08:31:53.130Z,52.6
2018-04-17T08:32:43.209Z,52.6
2018-04-17T08:33:32.651Z,52.6
2018-04-17T08:34:23.302Z,52.6
2018-04-17T08:35:13.124Z,52.6
2018-04-17T08:36:02.979Z,52.6
2018-04-17T08:36:53.927Z,52.5
2018-04-17T08:37:43.318Z,52.6
2018-04-17T08:38:33.653Z,52.6
2018-04-17T08:39:23.774Z,52.5
2018-04-17T08:40:13.761Z,52.5
2018-04-17T08:41:03.564Z,52.5
2018-04-17T08:41:53.861Z,52.5
2018-04-17T08:42:44.253Z,52.5
2018-04-17T08:43:34.043Z,52.5
2018-04-17T08:44:23.816Z,52.5
2018-04-17T08:45:14.156Z,52.5
2018-04-17T08:46:04.238Z,52.5
2018-04-17T08:47:26.344Z,52.4
2018-04-17T08:47:43.881Z,52.4
2018-04-17T08:48:34.361Z,52.4
2018-04-17T08:49:23.748Z,52.4
2018-04-17T08:50:14.530Z,52.4
2018-04-17T08:51:04.330Z,52.4
2018-04-17T08:51:54.382Z,52.4
2018-04-17T08:52:43.901Z,52.4
2018-04-17T08:56:03.888Z,52.3
2018-04-17T08:56:54.516Z,52.3
2018-04-17T08:57:44.818Z,52.3
2018-04-17T08:58:34.904Z,52.3
2018-04-17T08:59:40.241Z,52.2
2018-04-17T09:00:15.309Z,52.3
2018-04-17T09:01:05.614Z,52.3
2018-04-17T09:01:55.162Z,52.3
2018-04-17T09:03:00.348Z,52.3
2018-04-17T09:03:40.254Z,52.3
2018-04-17T09:04:30.044Z,52.3
2018-04-17T09:05:20.737Z,52.3
2018-04-17T09:06:10.417Z,52.3
2018-04-17T09:07:00.214Z,52.3
2018-04-17T09:07:50.328Z,52.3
2018-04-17T09:08:40.689Z,52.3
2018-04-17T09:09:30.668Z,52.3
2018-04-17T09:13:40.267Z,52.4
2018-04-17T09:14:30.611Z,52.4
2018-04-17T09:15:35.224Z,52.4
2018-04-17T09:16:11.230Z,52.5
2018-04-17T09:17:00.435Z,52.5
2018-04-17T09:17:51.067Z,52.5
2018-04-17T09:18:41.424Z,52.5
2018-04-17T09:19:31.502Z,52.6
2018-04-17T09:20:21.055Z,52.6
2018-04-17T09:21:11.054Z,52.6
2018-04-17T09:22:01.679Z,52.6
2018-04-17T09:23:06.126Z,52.6
2018-04-17T09:23:41.781Z,52.6
2018-04-17T09:24:30.519Z,52.6
2018-04-17T09:25:20.794Z,52.6
2018-04-17T09:26:12.181Z,52.6
2018-04-17T09:27:00.731Z,52.6
2018-04-17T09:27:51.264Z,52.7
2018-04-17T09:28:42.188Z,52.7
2018-04-17T09:29:31.976Z,52.7
2018-04-17T09:30:22.041Z,52.7
2018-04-17T09:31:12.049Z,52.8
2018-04-17T09:32:02.449Z,52.8
2018-04-17T09:32:52.499Z,52.8
2018-04-17T09:33:42.520Z,52.8
2018-04-17T09:34:32.691Z,52.8
2018-04-17T09:35:22.115Z,52.8
2018-04-17T09:36:12.864Z,52.8
2018-04-17T09:37:02.550Z,52.8
2018-04-17T09:37:52.835Z,52.8
2018-04-17T09:38:42.952Z,52.9
2018-04-17T09:39:32.721Z,52.8
2018-04-17T09:40:23.116Z,52.9
2018-04-17T09:41:13.140Z,52.9
2018-04-17T09:42:02.623Z,52.9
2018-04-17T09:42:52.973Z,52.9
2018-04-17T09:43:43.052Z,52.9
2018-04-17T09:44:33.287Z,52.9
2018-04-17T09:45:23.637Z,52.9
2018-04-17T09:46:13.235Z,52.9
2018-04-17T09:47:03.578Z,52.9
2018-04-17T09:47:53.380Z,52.9
2018-04-17T09:48:43.696Z,52.9
2018-04-17T09:49:33.816Z,52.9
2018-04-17T09:51:13.925Z,53
2018-04-17T09:52:02.641Z,53
2018-04-17T09:52:54.046Z,53
2018-04-17T09:53:43.276Z,53
2018-04-17T09:54:33.906Z,53
2018-04-17T09:55:23.654Z,53
2018-04-17T09:56:13.899Z,53
2018-04-17T09:57:04.785Z,53
2018-04-17T09:57:54.181Z,53
2018-04-17T09:58:59.210Z,53.1
2018-04-17T09:59:33.997Z,53.1
2018-04-17T10:01:14.024Z,53.1
2018-04-17T10:02:04.646Z,53.1
2018-04-17T10:02:54.046Z,53.1
2018-04-17T10:03:44.863Z,53.1
2018-04-17T10:04:34.910Z,53.1
2018-04-17T10:05:25.010Z,53.1
2018-04-17T10:06:14.580Z,53.1
2018-04-17T10:07:04.493Z,53.1
2018-04-17T10:07:55.213Z,53.1
2018-04-17T10:08:45.044Z,53.2
2018-04-17T10:09:35.259Z,53.2
2018-04-17T10:10:24.770Z,53.2
2018-04-17T10:11:15.166Z,53.2
2018-04-17T10:12:05.567Z,53.3
2018-04-17T10:12:55.315Z,53.3
2018-04-17T10:13:45.355Z,53.3
2018-04-17T10:14:35.173Z,53.3
2018-04-17T10:15:25.506Z,53.3
2018-04-17T10:16:15.543Z,53.3
2018-04-17T10:17:05.342Z,53.3
2018-04-17T10:17:55.716Z,53.3
2018-04-17T10:18:45.465Z,53.4
2018-04-17T10:19:35.688Z,53.4
2018-04-17T10:20:25.702Z,53.4
2018-04-17T10:21:16.235Z,53.4
2018-04-17T10:22:05.991Z,53.4
2018-04-17T10:22:55.587Z,53.5
2018-04-17T10:23:46.130Z,53.5
2018-04-17T10:24:36.204Z,53.5
2018-04-17T10:25:26.279Z,53.6
2018-04-17T10:26:16.544Z,53.6
2018-04-17T10:27:06.683Z,53.6
2018-04-17T10:27:56.454Z,53.6
2018-04-17T10:29:01.380Z,53.6
2018-04-17T10:29:36.353Z,53.7
2018-04-17T10:30:26.445Z,53.6
2018-04-17T10:31:16.414Z,53.7
2018-04-17T10:32:06.224Z,53.7
2018-04-17T10:32:57.034Z,53.7
2018-04-17T10:34:24.686Z,53.8
2018-04-17T10:35:14.735Z,53.8
2018-04-17T10:36:04.811Z,53.8
2018-04-17T10:36:54.609Z,53.8
2018-04-17T10:37:44.652Z,53.8
2018-04-17T10:38:35.019Z,53.8
2018-04-17T10:39:24.321Z,53.9
2018-04-17T10:40:15.107Z,53.9
2018-04-17T10:41:04.961Z,53.9
2018-04-17T10:41:55.284Z,53.9
2018-04-17T10:42:45.115Z,53.9
2018-04-17T10:43:35.093Z,53.9
2018-04-17T10:44:25.171Z,53.9
2018-04-17T10:45:14.472Z,53.9
2018-04-17T10:46:05.109Z,53.9
2018-04-17T10:46:55.655Z,53.9
2018-04-17T10:47:44.914Z,54
2018-04-17T10:48:34.886Z,54
2018-04-17T10:49:24.795Z,54
2018-04-17T10:50:15.361Z,54
2018-04-17T10:51:05.694Z,54
2018-04-17T10:51:55.725Z,54
2018-04-17T10:52:45.810Z,54
2018-04-17T10:53:36.133Z,54.1
2018-04-17T10:54:25.958Z,54.1
2018-04-17T10:55:16.259Z,54.1
2018-04-17T10:56:05.773Z,54.1
2018-04-17T10:56:56.128Z,54.1
2018-04-17T10:57:45.978Z,54.1
2018-04-17T10:58:36.563Z,54.1
2018-04-17T10:59:25.484Z,54.1
2018-04-17T11:00:16.714Z,54.1
2018-04-17T11:01:06.491Z,54.1
2018-04-17T11:01:56.784Z,54.1
2018-04-17T11:02:46.293Z,54.2
2018-04-17T11:03:36.627Z,54.2
2018-04-17T11:04:27.017Z,54.2
2018-04-17T11:05:17.055Z,54.2
2018-04-17T11:06:07.138Z,54.3
2018-04-17T11:06:56.872Z,54.3
2018-04-17T11:07:47.230Z,54.3
2018-04-17T11:08:36.755Z,54.3
2018-04-17T11:09:27.148Z,54.3
2018-04-17T11:10:17.466Z,54.3
2018-04-17T11:11:07.217Z,54.4
2018-04-17T11:11:57.588Z,54.4
2018-04-17T11:12:47.634Z,54.4
2018-04-17T11:13:36.842Z,54.4
2018-04-17T11:14:27.552Z,54.4
2018-04-17T11:15:17.544Z,54.4
2018-04-17T11:16:07.915Z,54.4
2018-04-17T11:16:57.980Z,54.5
2018-04-17T11:17:48.014Z,54.5
2018-04-17T11:18:38.090Z,54.5
2018-04-17T11:19:27.927Z,54.6
2018-04-17T11:20:17.925Z,54.6